createdAt,value
2022-10-18T00:00:29.631Z,11.30
2022-10-18T00:02:57.588Z,11.20
2022-10-18T00:05:25.543Z,11.20
2022-10-18T00:07:53.502Z,11.10
2022-10-18T00:10:21.529Z,11.10
2022-10-18T00:12:51.031Z,11.10
2022-10-18T00:15:19.861Z,11.00
2022-10-18T00:17:47.852Z,11.00
2022-10-18T00:20:15.892Z,11.00
2022-10-18T00:22:44.027Z,11.00
2022-10-18T00:25:12.177Z,10.90
2022-10-18T00:27:40.091Z,10.90
2022-10-18T00:30:10.520Z,10.90
2022-10-18T00:32:39.024Z,10.80
2022-10-18T00:35:08.609Z,10.70
2022-10-18T00:37:37.034Z,10.70
2022-10-18T00:40:06.820Z,10.70
2022-10-18T00:42:36.905Z,10.60
2022-10-18T00:45:16.113Z,10.60
2022-10-18T00:47:46.522Z,10.50
2022-10-18T00:50:15.004Z,10.40
2022-10-18T00:52:46.691Z,10.30
2022-10-18T00:55:14.824Z,10.30
2022-10-18T00:57:44.779Z,10.30
2022-10-18T01:00:15.617Z,10.30
2022-10-18T01:02:45.579Z,10.30
2022-10-18T01:05:15.024Z,10.30
2022-10-18T01:08:02.523Z,10.20
2022-10-18T01:10:38.482Z,10.10
2022-10-18T01:13:16.368Z,10.10
2022-10-18T01:18:29.055Z,10.00
2022-10-18T01:21:15.016Z,10.10
2022-10-18T01:24:25.633Z,10.30
2022-10-18T01:27:16.648Z,10.30
2022-10-18T01:29:54.226Z,10.10
2022-10-18T01:32:27.654Z,10.10
2022-10-18T01:34:59.186Z,10.00
2022-10-18T01:37:29.298Z,9.90
2022-10-18T01:40:00.632Z,9.90
2022-10-18T01:42:29.208Z,10.00
2022-10-18T01:44:58.042Z,10.00
2022-10-18T01:47:29.268Z,10.00
2022-10-18T01:50:00.927Z,10.10
2022-10-18T01:52:29.221Z,10.10
2022-10-18T01:54:58.798Z,10.10
2022-10-18T01:57:36.719Z,10.00
2022-10-18T02:00:08.336Z,9.90
2022-10-18T02:02:48.690Z,9.80
2022-10-18T02:05:26.205Z,9.70
2022-10-18T02:08:18.810Z,9.80
2022-10-18T02:10:53.937Z,9.90
2022-10-18T02:13:24.487Z,9.80
2022-10-18T02:15:58.567Z,9.90
2022-10-18T02:18:33.473Z,9.70
2022-10-18T02:21:04.516Z,9.80
2022-10-18T02:23:34.319Z,9.70
2022-10-18T02:26:02.514Z,9.60
2022-10-18T02:28:30.635Z,9.40
2022-10-18T02:31:04.901Z,9.40
2022-10-18T02:33:41.695Z,9.40
2022-10-18T02:36:16.303Z,9.40
2022-10-18T02:38:46.436Z,9.50
2022-10-18T02:41:22.733Z,9.60
2022-10-18T02:43:50.795Z,9.60
2022-10-18T02:46:18.887Z,9.60
2022-10-18T02:48:48.296Z,9.60
2022-10-18T02:51:16.493Z,9.60
2022-10-18T02:53:44.481Z,9.60
2022-10-18T02:56:12.497Z,9.60
2022-10-18T02:58:40.434Z,9.50
2022-10-18T03:01:08.414Z,9.50
2022-10-18T03:03:36.624Z,9.40
2022-10-18T03:06:06.199Z,9.50
2022-10-18T03:08:34.165Z,9.50
2022-10-18T03:11:02.183Z,9.30
2022-10-18T03:16:03.173Z,9.20
2022-10-18T03:18:31.152Z,9.20
2022-10-18T03:20:59.115Z,9.20
2022-10-18T03:23:28.445Z,9.30
2022-10-18T03:25:56.433Z,9.30
2022-10-18T03:28:24.472Z,9.30
2022-10-18T03:30:52.447Z,9.20
2022-10-18T03:33:20.571Z,9.20
2022-10-18T03:35:48.550Z,9.10
2022-10-18T03:38:16.547Z,9.10
2022-10-18T03:40:45.816Z,9.10
2022-10-18T03:43:13.784Z,9.00
2022-10-18T03:45:41.868Z,9.00
2022-10-18T03:48:09.856Z,8.90
2022-10-18T03:50:37.783Z,8.80
2022-10-18T03:53:06.270Z,8.70
2022-10-18T03:55:34.208Z,8.80
2022-10-18T03:58:03.551Z,8.80
2022-10-18T04:00:31.658Z,8.90
2022-10-18T04:02:59.727Z,8.90
2022-10-18T04:05:30.775Z,9.00
2022-10-18T04:07:59.015Z,9.00
2022-10-18T04:10:27.185Z,9.00
2022-10-18T04:12:55.393Z,8.80
2022-10-18T04:15:24.752Z,8.90
2022-10-18T04:17:52.710Z,8.90
2022-10-18T04:20:20.843Z,9.00
2022-10-18T04:22:50.085Z,9.00
2022-10-18T04:25:18.372Z,9.10
2022-10-18T04:27:46.326Z,9.10
2022-10-18T04:30:14.290Z,9.20
2022-10-18T04:32:43.659Z,9.20
2022-10-18T04:35:12.192Z,9.30
2022-10-18T04:37:40.186Z,9.40
2022-10-18T04:40:09.493Z,9.40
2022-10-18T04:42:37.426Z,9.40
2022-10-18T04:45:05.889Z,9.40
2022-10-18T04:47:34.060Z,9.40
2022-10-18T04:50:05.274Z,9.50
2022-10-18T04:52:33.317Z,9.40
2022-10-18T04:55:01.258Z,9.30
2022-10-18T04:57:29.408Z,9.20
2022-10-18T04:59:57.551Z,9.20
2022-10-18T05:02:25.485Z,9.10
2022-10-18T05:04:53.447Z,9.10
2022-10-18T05:07:22.949Z,9.00
2022-10-18T05:09:50.905Z,9.00
2022-10-18T05:12:18.869Z,9.10
2022-10-18T05:14:46.835Z,9.10
2022-10-18T05:17:14.806Z,9.10
2022-10-18T05:19:42.737Z,9.00
2022-10-18T05:22:10.734Z,9.10
2022-10-18T05:24:40.203Z,9.10
2022-10-18T05:27:08.210Z,9.10
2022-10-18T05:29:36.117Z,9.10
2022-10-18T05:32:04.226Z,9.20
2022-10-18T05:34:33.041Z,9.10
2022-10-18T05:37:01.120Z,9.10
2022-10-18T05:39:29.079Z,9.10
2022-10-18T05:41:58.539Z,9.10
2022-10-18T05:44:26.553Z,9.30
2022-10-18T05:46:54.544Z,9.50
2022-10-18T05:49:22.473Z,9.60
2022-10-18T05:51:50.625Z,9.80
2022-10-18T05:54:18.806Z,9.80
2022-10-18T05:56:46.806Z,10.00
2022-10-18T05:59:16.187Z,10.10
2022-10-18T06:01:44.605Z,10.30
2022-10-18T06:04:12.617Z,10.40
2022-10-18T06:06:40.818Z,10.60
2022-10-18T06:09:09.035Z,10.80
2022-10-18T06:11:38.229Z,11.00
2022-10-18T06:14:06.169Z,11.00
2022-10-18T06:16:38.430Z,11.20
2022-10-18T06:19:06.542Z,11.50
2022-10-18T06:21:34.891Z,11.70
2022-10-18T06:24:02.816Z,11.90
2022-10-18T06:26:30.814Z,12.10
2022-10-18T06:28:58.875Z,12.30
2022-10-18T06:31:26.989Z,12.50
2022-10-18T06:33:57.107Z,12.60
2022-10-18T06:36:25.686Z,12.80
2022-10-18T06:38:54.491Z,12.80
2022-10-18T06:41:22.460Z,12.80
2022-10-18T06:43:51.180Z,12.90
2022-10-18T06:46:19.102Z,12.90
2022-10-18T06:48:48.028Z,13.00
2022-10-18T06:51:18.288Z,13.20
2022-10-18T06:53:59.228Z,13.20
2022-10-18T06:56:34.574Z,13.30
2022-10-18T06:59:02.666Z,13.30
2022-10-18T07:01:30.764Z,13.40
2022-10-18T07:03:58.768Z,13.50
2022-10-18T07:06:28.084Z,13.60
2022-10-18T07:08:57.044Z,13.80
2022-10-18T07:11:27.023Z,13.90
2022-10-18T07:14:01.961Z,14.10
2022-10-18T07:16:30.620Z,14.30
2022-10-18T07:18:58.729Z,14.40
2022-10-18T07:21:28.579Z,14.60
2022-10-18T07:23:57.238Z,14.90
2022-10-18T07:26:27.130Z,15.30
2022-10-18T07:28:58.011Z,15.60
2022-10-18T07:31:27.048Z,15.90
2022-10-18T07:33:55.335Z,16.40
2022-10-18T07:36:24.445Z,16.90
2022-10-18T07:38:54.260Z,17.40
2022-10-18T07:41:22.757Z,17.60
2022-10-18T07:43:52.925Z,17.80
2022-10-18T07:46:22.181Z,18.00
2022-10-18T07:48:50.962Z,18.40
2022-10-18T07:51:19.815Z,18.20
2022-10-18T07:53:47.894Z,18.10
2022-10-18T07:56:21.206Z,18.20
2022-10-18T07:58:52.090Z,18.80
2022-10-18T08:01:21.029Z,18.80
2022-10-18T08:03:49.102Z,18.80
2022-10-18T08:06:18.963Z,19.00
2022-10-18T08:08:47.156Z,19.70
2022-10-18T08:11:17.712Z,19.50
2022-10-18T08:13:46.017Z,20.40
2022-10-18T08:16:16.994Z,21.40
2022-10-18T08:18:44.959Z,21.50
2022-10-18T08:21:14.429Z,20.90
2022-10-18T08:23:43.138Z,20.40
2022-10-18T08:26:13.544Z,21.10
2022-10-18T08:28:49.101Z,22.50
2022-10-18T08:31:26.736Z,23.60
2022-10-18T08:33:57.109Z,23.90
2022-10-18T08:36:25.250Z,23.30
2022-10-18T08:38:53.294Z,23.20
2022-10-18T08:41:47.329Z,23.30
2022-10-18T08:44:21.501Z,24.40
2022-10-18T08:46:52.682Z,24.90
2022-10-18T08:49:28.907Z,26.10
2022-10-18T08:51:58.246Z,27.20
2022-10-18T08:54:33.020Z,27.30
2022-10-18T08:57:03.043Z,27.70
2022-10-18T08:59:39.273Z,28.60
2022-10-18T09:02:20.025Z,28.80
2022-10-18T09:04:58.591Z,28.80
2022-10-18T09:07:51.528Z,28.80
2022-10-18T09:10:28.657Z,28.40
2022-10-18T09:13:08.549Z,27.50
2022-10-18T09:15:43.786Z,27.60
2022-10-18T09:18:27.619Z,28.30
2022-10-18T09:20:58.799Z,28.90
2022-10-18T09:23:39.326Z,29.60
2022-10-18T09:26:11.802Z,29.10
2022-10-18T09:28:47.851Z,29.30
2022-10-18T09:31:23.956Z,29.80
2022-10-18T09:33:57.574Z,29.50
2022-10-18T09:36:30.502Z,28.50
2022-10-18T09:39:03.201Z,28.30
2022-10-18T09:41:38.724Z,28.70
2022-10-18T09:44:14.437Z,29.10
2022-10-18T09:46:48.731Z,31.20
2022-10-18T09:49:20.062Z,32.30
2022-10-18T09:51:51.185Z,31.70
2022-10-18T09:54:25.436Z,31.00
2022-10-18T09:56:58.621Z,29.90
2022-10-18T09:59:35.718Z,29.00
2022-10-18T10:02:05.797Z,28.10
2022-10-18T10:04:34.068Z,27.50
2022-10-18T10:07:03.332Z,27.10
2022-10-18T10:09:37.208Z,26.70
2022-10-18T10:12:05.523Z,26.50
2022-10-18T10:14:44.938Z,27.00
2022-10-18T10:17:26.355Z,26.40
2022-10-18T10:20:03.753Z,25.70
2022-10-18T10:22:36.312Z,25.50
2022-10-18T10:25:05.145Z,26.20
2022-10-18T10:27:35.659Z,26.80
2022-10-18T10:30:07.316Z,27.60
2022-10-18T10:32:47.662Z,28.20
2022-10-18T10:35:41.374Z,28.20
2022-10-18T10:38:24.802Z,27.60
2022-10-18T10:40:53.251Z,27.90
2022-10-18T10:43:37.003Z,28.10
2022-10-18T10:46:09.476Z,28.70
2022-10-18T10:48:48.244Z,29.20
2022-10-18T10:51:19.282Z,29.50
2022-10-18T10:53:57.995Z,29.60
2022-10-18T10:56:29.226Z,29.60
2022-10-18T10:59:02.554Z,29.10
2022-10-18T11:01:33.203Z,29.00
2022-10-18T11:04:23.531Z,29.30
2022-10-18T11:06:59.721Z,29.50
2022-10-18T11:09:46.721Z,29.50
2022-10-18T11:12:27.718Z,29.20
2022-10-18T11:15:05.491Z,29.90
2022-10-18T11:17:40.791Z,30.20
2022-10-18T11:20:22.189Z,29.80
2022-10-18T11:23:00.918Z,29.90
2022-10-18T11:26:00.401Z,30.30
2022-10-18T11:28:40.658Z,29.90
2022-10-18T11:31:15.903Z,29.60
2022-10-18T11:34:08.815Z,29.60
2022-10-18T11:36:56.060Z,29.40
2022-10-18T11:39:42.434Z,29.30
2022-10-18T11:42:21.376Z,29.50
2022-10-18T11:44:58.688Z,29.10
2022-10-18T11:47:35.695Z,28.40
2022-10-18T11:50:12.328Z,27.20
2022-10-18T11:52:50.749Z,26.60
2022-10-18T11:55:33.250Z,26.20
2022-10-18T11:58:11.465Z,25.60
2022-10-18T12:00:49.026Z,25.40
2022-10-18T12:03:26.155Z,25.20
2022-10-18T12:05:57.708Z,24.90
2022-10-18T12:08:32.836Z,24.60
2022-10-18T12:11:08.876Z,24.70
2022-10-18T12:13:41.672Z,24.80
2022-10-18T12:16:11.295Z,24.70
2022-10-18T12:18:55.077Z,24.60
2022-10-18T12:21:26.232Z,24.70
2022-10-18T12:24:00.271Z,24.80
2022-10-18T12:26:29.531Z,24.70
2022-10-18T12:29:09.629Z,24.60
2022-10-18T12:31:41.826Z,24.60
2022-10-18T12:34:33.669Z,24.60
2022-10-18T12:37:18.059Z,24.50
2022-10-18T12:40:09.037Z,24.40
2022-10-18T12:42:44.421Z,24.50
2022-10-18T12:45:30.126Z,24.40
2022-10-18T12:48:01.679Z,24.30
2022-10-18T12:50:35.927Z,24.30
2022-10-18T12:53:17.415Z,24.30
2022-10-18T12:55:48.301Z,24.10
2022-10-18T12:58:31.192Z,24.00
2022-10-18T13:01:07.378Z,24.00
2022-10-18T13:04:02.176Z,24.20
2022-10-18T13:07:10.098Z,24.30
2022-10-18T13:09:40.065Z,24.20
2022-10-18T13:12:50.253Z,24.10
2022-10-18T13:15:37.247Z,24.20
2022-10-18T13:18:16.786Z,24.30
2022-10-18T13:20:55.575Z,24.20
2022-10-18T13:23:38.966Z,24.10
2022-10-18T13:26:18.625Z,24.10
2022-10-18T13:28:57.883Z,24.10
2022-10-18T13:31:36.185Z,24.10
2022-10-18T13:34:26.416Z,24.10
2022-10-18T13:36:59.494Z,24.00
2022-10-18T13:39:29.048Z,23.80
2022-10-18T13:42:31.458Z,23.60
2022-10-18T13:45:36.616Z,23.50
2022-10-18T13:48:41.921Z,23.40
2022-10-18T13:51:36.503Z,23.20
2022-10-18T13:54:16.339Z,23.20
2022-10-18T13:57:07.550Z,23.30
2022-10-18T14:00:05.178Z,23.40
2022-10-18T14:03:10.067Z,23.60
2022-10-18T14:05:51.998Z,23.80
2022-10-18T14:08:26.498Z,23.90
2022-10-18T14:11:02.746Z,23.90
2022-10-18T14:13:40.469Z,23.80
2022-10-18T14:16:21.066Z,23.80
2022-10-18T14:18:52.436Z,23.60
2022-10-18T14:21:28.777Z,23.40
2022-10-18T14:24:00.415Z,23.20
2022-10-18T14:26:29.353Z,22.90
2022-10-18T14:29:04.996Z,22.80
2022-10-18T14:31:33.767Z,22.70
2022-10-18T14:34:02.560Z,22.70
2022-10-18T14:36:37.686Z,22.60
2022-10-18T14:39:08.633Z,22.40
2022-10-18T14:41:38.609Z,22.30
2022-10-18T14:44:21.098Z,22.30
2022-10-18T14:46:51.470Z,22.20
2022-10-18T14:49:21.133Z,21.90
2022-10-18T14:51:51.722Z,21.80
2022-10-18T14:54:27.617Z,21.70
2022-10-18T14:57:00.404Z,21.50
2022-10-18T14:59:30.602Z,21.60
2022-10-18T15:02:02.242Z,21.60
2022-10-18T15:04:33.054Z,21.80
2022-10-18T15:07:03.073Z,21.80
2022-10-18T15:09:33.961Z,21.80
2022-10-18T15:12:03.100Z,21.80
2022-10-18T15:14:31.729Z,21.80
2022-10-18T15:17:03.901Z,21.70
2022-10-18T15:19:35.282Z,21.60
2022-10-18T15:22:31.308Z,21.50
2022-10-18T15:25:16.479Z,21.50
2022-10-18T15:27:47.344Z,21.50
2022-10-18T15:30:22.692Z,21.50
2022-10-18T15:32:53.553Z,21.40
2022-10-18T15:35:26.779Z,21.30
2022-10-18T15:37:56.925Z,21.20
2022-10-18T15:40:36.807Z,21.10
2022-10-18T15:43:07.708Z,21.00
2022-10-18T15:45:39.568Z,21.00
2022-10-18T15:48:22.129Z,21.00
2022-10-18T15:50:52.085Z,20.90
2022-10-18T15:53:50.069Z,20.90
2022-10-18T15:56:33.728Z,20.80
2022-10-18T15:59:04.068Z,20.70
2022-10-18T16:01:38.146Z,20.60
2022-10-18T16:04:10.388Z,20.50
2022-10-18T16:06:38.593Z,20.50
2022-10-18T16:09:06.846Z,20.30
2022-10-18T16:11:36.161Z,20.30
2022-10-18T16:14:04.147Z,20.30
2022-10-18T16:16:32.233Z,20.30
2022-10-18T16:19:00.978Z,20.20
2022-10-18T16:21:31.283Z,20.10
2022-10-18T16:23:59.463Z,20.10
2022-10-18T16:26:28.804Z,20.10
2022-10-18T16:28:59.107Z,20.00
2022-10-18T16:31:29.030Z,19.90
2022-10-18T16:33:58.005Z,19.70
2022-10-18T16:36:29.049Z,19.60
2022-10-18T16:38:57.913Z,19.70
2022-10-18T16:41:26.115Z,19.60
2022-10-18T16:43:54.677Z,19.50
2022-10-18T16:46:27.271Z,19.50
2022-10-18T16:48:56.143Z,19.40
2022-10-18T16:51:24.483Z,19.30
2022-10-18T16:53:53.353Z,19.30
2022-10-18T16:56:24.208Z,19.20
2022-10-18T16:58:52.465Z,19.10
2022-10-18T17:01:23.589Z,18.90
2022-10-18T17:03:52.996Z,18.90
2022-10-18T17:06:23.509Z,18.80
2022-10-18T17:08:52.916Z,18.80
2022-10-18T17:11:22.399Z,18.60
2022-10-18T17:13:50.610Z,18.50
2022-10-18T17:16:25.216Z,18.50
2022-10-18T17:18:53.157Z,18.40
2022-10-18T17:21:21.221Z,18.40
2022-10-18T17:23:49.368Z,18.20
2022-10-18T17:26:28.897Z,18.20
2022-10-18T17:29:00.117Z,18.20
2022-10-18T17:31:30.571Z,18.20
2022-10-18T17:34:01.452Z,18.00
2022-10-18T17:36:29.775Z,17.90
2022-10-18T17:38:58.183Z,17.80
2022-10-18T17:41:26.278Z,17.60
2022-10-18T17:43:54.616Z,17.50
2022-10-18T17:46:23.602Z,17.40
2022-10-18T17:48:54.434Z,17.40
2022-10-18T17:51:23.005Z,17.30
2022-10-18T17:53:51.139Z,17.30
2022-10-18T17:56:19.141Z,17.20
2022-10-18T17:58:50.779Z,17.10
2022-10-18T18:01:20.837Z,17.00
2022-10-18T18:03:49.083Z,17.00
2022-10-18T18:06:20.897Z,17.00
2022-10-18T18:08:49.892Z,17.00
2022-10-18T18:11:18.579Z,17.20
2022-10-18T18:13:46.948Z,17.20
2022-10-18T18:16:17.389Z,17.20
2022-10-18T18:18:46.440Z,17.20
2022-10-18T18:21:14.541Z,17.00
2022-10-18T18:23:44.269Z,17.00
2022-10-18T18:26:13.867Z,17.10
2022-10-18T18:28:42.021Z,17.10
2022-10-18T18:31:14.581Z,17.10
2022-10-18T18:33:43.247Z,17.10
2022-10-18T18:36:12.216Z,17.10
2022-10-18T18:38:42.609Z,17.10
2022-10-18T18:41:13.795Z,17.10
2022-10-18T18:43:44.242Z,17.10
2022-10-18T18:46:13.553Z,17.00
2022-10-18T18:48:42.030Z,16.90
2022-10-18T18:51:12.946Z,16.70
2022-10-18T18:53:42.117Z,16.70
2022-10-18T18:56:13.902Z,16.70
2022-10-18T18:58:44.865Z,16.70
2022-10-18T19:01:14.770Z,16.70
2022-10-18T19:03:42.990Z,16.70
2022-10-18T19:06:13.778Z,16.70
2022-10-18T19:08:41.782Z,16.70
2022-10-18T19:11:09.832Z,16.60
2022-10-18T19:13:39.170Z,16.50
2022-10-18T19:16:25.835Z,16.50
2022-10-18T19:18:56.279Z,16.50
2022-10-18T19:21:25.868Z,16.60
2022-10-18T19:23:56.025Z,16.50
2022-10-18T19:26:44.901Z,16.50
2022-10-18T19:29:16.677Z,16.60
2022-10-18T19:31:45.774Z,16.60
2022-10-18T19:34:16.152Z,16.60
2022-10-18T19:36:45.856Z,16.50
2022-10-18T19:39:18.145Z,16.50
2022-10-18T19:41:46.422Z,16.40
2022-10-18T19:44:15.779Z,16.30
2022-10-18T19:46:44.276Z,16.30
2022-10-18T19:49:12.601Z,16.10
2022-10-18T19:51:40.954Z,16.00
2022-10-18T19:54:09.191Z,15.90
2022-10-18T19:56:37.174Z,15.80
2022-10-18T19:59:05.427Z,15.70
2022-10-18T20:01:34.969Z,15.60
2022-10-18T20:04:03.782Z,15.50
2022-10-18T20:06:32.154Z,15.50
2022-10-18T20:09:00.161Z,15.50
2022-10-18T20:11:29.862Z,15.40
2022-10-18T20:13:59.526Z,15.40
2022-10-18T20:16:29.461Z,15.30
2022-10-18T20:19:00.557Z,15.30
2022-10-18T20:21:30.089Z,15.20
2022-10-18T20:23:58.708Z,15.00
2022-10-18T20:26:26.936Z,14.90
2022-10-18T20:28:57.860Z,14.80
2022-10-18T20:31:27.085Z,14.70
2022-10-18T20:33:56.540Z,14.70
2022-10-18T20:36:26.502Z,14.70
2022-10-18T20:38:55.098Z,14.70
2022-10-18T20:41:25.324Z,14.60
2022-10-18T20:43:54.198Z,14.50
2022-10-18T20:46:22.444Z,14.40
2022-10-18T20:48:50.887Z,14.40
2022-10-18T20:51:19.845Z,14.30
2022-10-18T20:53:49.750Z,14.30
2022-10-18T20:56:20.636Z,14.40
2022-10-18T20:58:50.086Z,14.30
2022-10-18T21:01:20.083Z,14.30
2022-10-18T21:03:49.967Z,14.30
2022-10-18T21:06:19.574Z,14.20
2022-10-18T21:08:52.926Z,14.30
2022-10-18T21:11:20.700Z,14.30
2022-10-18T21:13:51.745Z,14.20
2022-10-18T21:16:19.822Z,14.20
2022-10-18T21:18:48.249Z,14.20
2022-10-18T21:21:18.148Z,14.00
2022-10-18T21:23:46.804Z,14.00
2022-10-18T21:26:18.174Z,14.00
2022-10-18T21:28:47.645Z,14.00
2022-10-18T21:31:17.928Z,13.90
2022-10-18T21:33:46.823Z,13.80
2022-10-18T21:36:15.533Z,13.90
2022-10-18T21:38:45.977Z,13.80
2022-10-18T21:41:16.873Z,13.70
2022-10-18T21:43:46.568Z,13.70
2022-10-18T21:46:16.116Z,13.70
2022-10-18T21:48:45.249Z,13.60
2022-10-18T21:51:14.365Z,13.50
2022-10-18T21:53:44.651Z,13.50
2022-10-18T21:56:15.069Z,13.40
2022-10-18T21:58:44.948Z,13.40
2022-10-18T22:01:14.830Z,13.50
2022-10-18T22:03:43.282Z,13.60
2022-10-18T22:06:14.692Z,13.50
2022-10-18T22:08:43.477Z,13.50
2022-10-18T22:11:12.283Z,13.50
2022-10-18T22:13:40.637Z,13.40
2022-10-18T22:16:12.230Z,13.50
2022-10-18T22:18:40.325Z,13.60
2022-10-18T22:21:11.505Z,13.60
2022-10-18T22:23:41.201Z,13.70
2022-10-18T22:26:11.158Z,13.80
2022-10-18T22:28:39.802Z,13.70
2022-10-18T22:31:15.027Z,13.60
2022-10-18T22:33:43.004Z,13.60
2022-10-18T22:36:11.005Z,13.50
2022-10-18T22:38:39.305Z,13.60
2022-10-18T22:41:08.139Z,13.70
2022-10-18T22:43:37.090Z,13.80
2022-10-18T22:46:07.155Z,13.90
2022-10-18T22:48:37.092Z,13.90
2022-10-18T22:51:05.552Z,13.90
2022-10-18T22:53:34.313Z,13.80
2022-10-18T22:56:02.656Z,13.80
2022-10-18T22:58:30.606Z,13.70
2022-10-18T23:01:02.608Z,13.70
2022-10-18T23:03:30.533Z,13.70
2022-10-18T23:06:00.215Z,13.70
2022-10-18T23:08:28.651Z,13.50
2022-10-18T23:10:58.208Z,13.60
2022-10-18T23:13:27.763Z,13.60
2022-10-18T23:16:04.473Z,13.70
2022-10-18T23:18:33.536Z,13.80
2022-10-18T23:21:04.059Z,13.90
2022-10-18T23:23:34.787Z,14.00
2022-10-18T23:26:04.310Z,14.00
2022-10-18T23:28:35.362Z,14.00
2022-10-18T23:31:08.493Z,14.00
2022-10-18T23:33:36.837Z,14.00
2022-10-18T23:36:07.912Z,14.10
2022-10-18T23:38:36.974Z,14.10
2022-10-18T23:41:05.644Z,14.20
2022-10-18T23:43:33.633Z,14.10
2022-10-18T23:46:01.776Z,14.20
2022-10-18T23:48:29.725Z,14.20
2022-10-18T23:50:57.794Z,14.30
2022-10-18T23:53:27.112Z,14.40
2022-10-18T23:55:57.820Z,14.40
2022-10-18T23:58:27.538Z,14.40
